createdAt,value
2019-04-27T00:02:18.122Z,10.20
2019-04-27T00:05:09.427Z,10.10
2019-04-27T00:07:46.042Z,10.00
2019-04-27T00:10:28.578Z,10.00
2019-04-27T00:13:03.916Z,10.00
2019-04-27T00:15:41.174Z,10.00
2019-04-27T00:18:27.879Z,10.00
2019-04-27T00:21:03.581Z,10.00
2019-04-27T00:23:33.989Z,10.00
2019-04-27T00:26:03.433Z,9.90
2019-04-27T00:28:33.908Z,10.00
2019-04-27T00:31:03.412Z,9.90
2019-04-27T00:33:33.959Z,9.90
2019-04-27T00:36:10.195Z,10.00
2019-04-27T00:38:47.173Z,10.00
2019-04-27T00:41:19.153Z,10.10
2019-04-27T00:43:47.859Z,10.10
2019-04-27T00:46:17.284Z,10.10
2019-04-27T00:48:46.392Z,10.00
2019-04-27T00:51:15.754Z,10.10
2019-04-27T00:53:45.992Z,10.00
2019-04-27T00:56:42.961Z,10.00
2019-04-27T00:59:33.061Z,10.00
2019-04-27T01:02:16.555Z,10.00
2019-04-27T01:04:47.667Z,9.90
2019-04-27T01:07:16.821Z,9.90
2019-04-27T01:09:45.991Z,9.90
2019-04-27T01:12:15.670Z,10.00
2019-04-27T01:14:45.199Z,10.00
2019-04-27T01:17:14.749Z,9.90
2019-04-27T01:19:44.776Z,10.00
2019-04-27T01:22:13.999Z,10.10
2019-04-27T01:24:43.129Z,10.10
2019-04-27T01:27:28.939Z,10.00
2019-04-27T01:29:59.663Z,10.10
2019-04-27T01:32:29.262Z,10.20
2019-04-27T01:34:59.197Z,10.20
2019-04-27T01:37:28.816Z,10.30
2019-04-27T01:39:59.052Z,10.30
2019-04-27T01:42:29.480Z,10.30
2019-04-27T01:44:59.518Z,10.30
2019-04-27T01:47:28.984Z,10.30
2019-04-27T01:49:58.560Z,10.30
2019-04-27T01:52:29.192Z,10.40
2019-04-27T01:55:01.000Z,10.40
2019-04-27T01:57:30.515Z,10.30
2019-04-27T01:59:59.702Z,10.30
2019-04-27T02:02:44.194Z,10.40
2019-04-27T02:05:29.014Z,10.40
2019-04-27T02:07:59.312Z,10.40
2019-04-27T02:10:29.311Z,10.50
2019-04-27T02:12:58.749Z,10.50
2019-04-27T02:15:29.346Z,10.50
2019-04-27T02:17:59.695Z,10.50
2019-04-27T02:20:30.142Z,10.50
2019-04-27T02:22:59.479Z,10.50
2019-04-27T02:25:29.453Z,10.40
2019-04-27T02:28:04.219Z,10.40
2019-04-27T02:31:01.858Z,10.40
2019-04-27T02:33:50.433Z,10.40
2019-04-27T02:36:20.254Z,10.40
2019-04-27T02:38:49.586Z,10.40
2019-04-27T02:41:19.930Z,10.40
2019-04-27T02:43:59.538Z,10.40
2019-04-27T02:46:31.261Z,10.40
2019-04-27T02:49:05.805Z,10.40
2019-04-27T02:51:42.879Z,10.50
2019-04-27T02:54:12.831Z,10.50
2019-04-27T02:56:41.963Z,10.50
2019-04-27T02:59:13.972Z,10.50
2019-04-27T03:01:52.966Z,10.50
2019-04-27T03:04:20.959Z,10.50
2019-04-27T03:06:50.354Z,10.50
2019-04-27T03:09:20.738Z,10.50
2019-04-27T03:11:59.455Z,10.50
2019-04-27T03:14:40.490Z,10.50
2019-04-27T03:17:36.319Z,10.50
2019-04-27T03:20:14.285Z,10.50
2019-04-27T03:22:46.147Z,10.40
2019-04-27T03:25:34.493Z,10.30
2019-04-27T03:28:14.419Z,10.30
2019-04-27T03:30:43.816Z,10.20
2019-04-27T03:33:13.103Z,10.20
2019-04-27T03:35:44.414Z,10.10
2019-04-27T03:38:15.243Z,10.10
2019-04-27T03:40:44.554Z,10.10
2019-04-27T03:43:20.070Z,10.00
2019-04-27T03:45:51.727Z,9.90
2019-04-27T03:48:20.508Z,9.90
2019-04-27T03:51:19.992Z,9.90
2019-04-27T03:54:00.388Z,9.90
2019-04-27T03:56:50.473Z,9.80
2019-04-27T03:59:40.566Z,9.80
2019-04-27T04:02:10.174Z,9.80
2019-04-27T04:04:40.546Z,9.80
2019-04-27T04:07:16.085Z,9.80
2019-04-27T04:09:45.290Z,9.80
2019-04-27T04:12:40.130Z,9.80
2019-04-27T04:15:12.720Z,9.80
2019-04-27T04:17:43.878Z,9.80
2019-04-27T04:20:13.093Z,9.80
2019-04-27T04:22:42.823Z,9.80
2019-04-27T04:25:13.121Z,9.80
2019-04-27T04:27:42.866Z,9.80
2019-04-27T04:30:12.806Z,9.80
2019-04-27T04:32:41.940Z,9.80
2019-04-27T04:35:21.935Z,9.80
2019-04-27T04:37:52.734Z,9.80
2019-04-27T04:40:26.385Z,9.80
2019-04-27T04:43:07.424Z,9.90
2019-04-27T04:45:59.473Z,9.80
2019-04-27T04:48:30.054Z,9.90
2019-04-27T04:51:00.792Z,9.80
2019-04-27T04:53:30.394Z,9.90
2019-04-27T04:56:00.329Z,9.90
2019-04-27T04:58:29.671Z,9.90
2019-04-27T05:00:59.625Z,9.90
2019-04-27T05:03:29.570Z,9.90
2019-04-27T05:05:59.871Z,9.90
2019-04-27T05:08:29.261Z,9.90
2019-04-27T05:10:59.671Z,9.90
2019-04-27T05:13:29.359Z,9.90
2019-04-27T05:15:58.993Z,9.90
2019-04-27T05:18:29.355Z,9.90
2019-04-27T05:21:08.661Z,9.90
2019-04-27T05:23:38.809Z,10.00
2019-04-27T05:26:09.109Z,9.90
2019-04-27T05:28:40.612Z,9.90
2019-04-27T05:31:09.322Z,9.90
2019-04-27T05:33:38.897Z,9.90
2019-04-27T05:36:09.185Z,10.00
2019-04-27T05:38:41.911Z,9.90
2019-04-27T05:41:09.419Z,10.00
2019-04-27T05:43:49.035Z,10.00
2019-04-27T05:46:39.676Z,10.00
2019-04-27T05:49:12.942Z,9.90
2019-04-27T05:51:42.151Z,10.00
2019-04-27T05:54:11.300Z,9.90
2019-04-27T05:56:40.440Z,9.90
2019-04-27T05:59:09.529Z,9.80
2019-04-27T06:01:39.103Z,9.80
2019-04-27T06:04:08.993Z,9.70
2019-04-27T06:06:39.843Z,9.70
2019-04-27T06:09:09.596Z,9.70
2019-04-27T06:11:39.983Z,9.70
2019-04-27T06:14:10.189Z,9.70
2019-04-27T06:16:39.453Z,9.70
2019-04-27T06:19:09.837Z,9.80
2019-04-27T06:21:40.103Z,9.80
2019-04-27T06:24:09.456Z,9.90
2019-04-27T06:26:39.921Z,10.00
2019-04-27T06:29:11.661Z,9.90
2019-04-27T06:31:46.026Z,10.00
2019-04-27T06:34:16.577Z,10.00
2019-04-27T06:36:45.803Z,10.20
2019-04-27T06:39:14.832Z,10.30
2019-04-27T06:41:43.942Z,10.50
2019-04-27T06:44:13.701Z,10.60
2019-04-27T06:46:42.805Z,10.80
2019-04-27T06:49:12.230Z,10.90
2019-04-27T06:51:44.116Z,10.90
2019-04-27T06:54:13.882Z,11.10
2019-04-27T06:56:43.009Z,11.20
2019-04-27T06:59:12.605Z,11.20
2019-04-27T07:01:44.098Z,11.30
2019-04-27T07:04:13.292Z,11.40
2019-04-27T07:06:53.189Z,11.50
2019-04-27T07:09:14.472Z,11.60
2019-04-27T07:11:43.627Z,11.80
2019-04-27T07:14:16.923Z,11.80
2019-04-27T07:16:48.837Z,11.80
2019-04-27T07:19:19.086Z,11.80
2019-04-27T07:21:49.792Z,11.70
2019-04-27T07:24:19.739Z,11.70
2019-04-27T07:26:49.957Z,11.70
2019-04-27T07:29:23.103Z,11.60
2019-04-27T07:31:53.768Z,11.60
2019-04-27T07:34:22.713Z,11.80
2019-04-27T07:36:51.843Z,11.90
2019-04-27T07:39:20.924Z,11.90
2019-04-27T07:41:50.138Z,12.00
2019-04-27T07:44:41.734Z,12.20
2019-04-27T07:47:19.443Z,12.30
2019-04-27T07:49:49.644Z,12.50
2019-04-27T07:52:20.553Z,12.50
2019-04-27T07:54:49.877Z,12.70
2019-04-27T07:57:19.763Z,13.00
2019-04-27T07:59:50.173Z,13.00
2019-04-27T08:02:19.660Z,13.20
2019-04-27T08:04:50.467Z,13.50
2019-04-27T08:07:19.890Z,13.60
2019-04-27T08:09:49.734Z,13.60
2019-04-27T08:12:20.816Z,13.70
2019-04-27T08:14:50.860Z,13.70
2019-04-27T08:17:21.302Z,13.60
2019-04-27T08:19:51.476Z,13.60
2019-04-27T08:22:20.605Z,13.70
2019-04-27T08:24:50.163Z,14.20
2019-04-27T08:27:29.457Z,14.60
2019-04-27T08:30:20.784Z,14.40
2019-04-27T08:32:50.855Z,14.50
2019-04-27T08:35:20.002Z,14.40
2019-04-27T08:37:49.648Z,14.10
2019-04-27T08:40:19.379Z,14.10
2019-04-27T08:42:50.827Z,14.20
2019-04-27T08:45:20.757Z,14.00
2019-04-27T08:47:50.086Z,14.10
2019-04-27T08:50:20.761Z,13.80
2019-04-27T08:52:50.277Z,13.80
2019-04-27T08:55:19.784Z,13.50
2019-04-27T08:57:49.161Z,13.20
2019-04-27T09:00:19.386Z,13.20
2019-04-27T09:02:50.311Z,13.30
2019-04-27T09:05:25.850Z,13.30
2019-04-27T09:08:25.295Z,13.30
2019-04-27T09:11:01.304Z,13.30
2019-04-27T09:13:37.139Z,13.40
2019-04-27T09:16:25.736Z,13.30
2019-04-27T09:18:59.832Z,13.40
2019-04-27T09:21:48.572Z,14.20
2019-04-27T09:24:18.845Z,14.90
2019-04-27T09:26:49.219Z,14.60
2019-04-27T09:29:19.749Z,13.90
2019-04-27T09:31:49.274Z,13.70
2019-04-27T09:34:18.943Z,13.70
2019-04-27T09:36:48.102Z,14.00
2019-04-27T09:39:17.296Z,13.90
2019-04-27T09:41:48.278Z,13.90
2019-04-27T09:44:17.589Z,14.30
2019-04-27T09:46:47.558Z,14.50
2019-04-27T09:49:17.279Z,14.70
2019-04-27T09:51:47.803Z,14.40
2019-04-27T09:54:17.400Z,14.30
2019-04-27T09:56:46.801Z,15.00
2019-04-27T09:59:16.391Z,15.70
2019-04-27T10:01:46.585Z,16.10
2019-04-27T10:04:17.483Z,15.80
2019-04-27T10:06:48.861Z,15.20
2019-04-27T10:09:18.395Z,14.70
2019-04-27T10:11:47.585Z,14.50
2019-04-27T10:14:16.964Z,14.20
2019-04-27T10:16:48.193Z,13.70
2019-04-27T10:19:28.232Z,13.50
2019-04-27T10:21:48.327Z,14.00
2019-04-27T10:24:17.554Z,14.90
2019-04-27T10:26:46.665Z,15.20
2019-04-27T10:29:16.207Z,14.90
2019-04-27T10:31:46.367Z,14.30
2019-04-27T10:34:18.520Z,13.70
2019-04-27T10:36:47.992Z,13.50
2019-04-27T10:39:17.440Z,13.80
2019-04-27T10:41:46.926Z,13.90
2019-04-27T10:44:16.471Z,13.80
2019-04-27T10:46:45.983Z,13.60
2019-04-27T10:49:15.925Z,13.80
2019-04-27T10:51:45.662Z,13.90
2019-04-27T10:54:16.692Z,14.10
2019-04-27T10:56:47.631Z,14.20
2019-04-27T10:59:16.722Z,14.80
2019-04-27T11:01:46.064Z,14.90
2019-04-27T11:04:25.945Z,15.10
2019-04-27T11:06:58.193Z,15.30
2019-04-27T11:09:27.493Z,15.10
2019-04-27T11:11:56.879Z,14.90
2019-04-27T11:14:26.296Z,14.50
2019-04-27T11:16:56.023Z,14.60
2019-04-27T11:19:27.323Z,14.30
2019-04-27T11:21:56.837Z,13.50
2019-04-27T11:24:26.013Z,13.20
2019-04-27T11:26:56.699Z,13.30
2019-04-27T11:29:27.701Z,13.40
2019-04-27T11:31:56.959Z,13.50
2019-04-27T11:34:45.954Z,13.70
2019-04-27T11:37:18.825Z,13.50
2019-04-27T11:39:48.234Z,13.30
2019-04-27T11:42:17.484Z,12.70
2019-04-27T11:44:47.125Z,12.60
2019-04-27T11:47:16.421Z,12.50
2019-04-27T11:49:45.719Z,12.50
2019-04-27T11:52:15.741Z,12.80
2019-04-27T11:54:47.875Z,13.20
2019-04-27T11:57:18.998Z,13.60
2019-04-27T11:59:48.260Z,13.70
2019-04-27T12:02:18.882Z,13.60
2019-04-27T12:04:48.158Z,14.00
2019-04-27T12:07:18.454Z,14.80
2019-04-27T12:09:48.141Z,15.20
2019-04-27T12:12:21.863Z,15.30
2019-04-27T12:14:51.263Z,14.80
2019-04-27T12:17:20.736Z,15.30
2019-04-27T12:19:50.475Z,15.10
2019-04-27T12:22:19.581Z,14.70
2019-04-27T12:24:50.940Z,14.40
2019-04-27T12:27:45.799Z,14.10
2019-04-27T12:30:23.479Z,14.10
2019-04-27T12:32:58.087Z,14.20
2019-04-27T12:35:27.505Z,14.50
2019-04-27T12:37:56.761Z,14.80
2019-04-27T12:40:26.818Z,14.90
2019-04-27T12:42:57.493Z,14.70
2019-04-27T12:45:26.821Z,14.70
2019-04-27T12:47:57.891Z,14.40
2019-04-27T12:50:27.193Z,14.60
2019-04-27T12:52:59.710Z,14.90
2019-04-27T12:55:48.196Z,14.60
2019-04-27T12:58:28.745Z,14.60
2019-04-27T13:00:58.512Z,14.50
2019-04-27T13:03:27.651Z,14.20
2019-04-27T13:05:56.859Z,14.10
2019-04-27T13:08:28.516Z,14.10
2019-04-27T13:11:00.169Z,14.20
2019-04-27T13:13:29.389Z,14.40
2019-04-27T13:15:59.712Z,14.80
2019-04-27T13:18:33.380Z,14.80
2019-04-27T13:21:04.675Z,14.90
2019-04-27T13:23:33.936Z,15.20
2019-04-27T13:26:03.118Z,15.10
2019-04-27T13:28:33.225Z,14.80
2019-04-27T13:31:02.468Z,14.70
2019-04-27T13:33:31.510Z,15.10
2019-04-27T13:36:00.723Z,15.50
2019-04-27T13:38:29.907Z,15.10
2019-04-27T13:41:09.727Z,14.80
2019-04-27T13:43:42.245Z,14.50
2019-04-27T13:46:30.405Z,14.50
2019-04-27T13:49:21.641Z,14.20
2019-04-27T13:52:12.799Z,14.10
2019-04-27T13:54:42.037Z,13.90
2019-04-27T13:57:11.135Z,13.70
2019-04-27T13:59:41.797Z,13.50
2019-04-27T14:02:11.402Z,13.50
2019-04-27T14:04:41.064Z,13.70
2019-04-27T14:07:10.514Z,13.70
2019-04-27T14:09:40.347Z,13.90
2019-04-27T14:12:21.222Z,13.90
2019-04-27T14:14:54.776Z,13.60
2019-04-27T14:17:24.224Z,13.40
2019-04-27T14:19:53.354Z,13.40
2019-04-27T14:22:22.870Z,13.60
2019-04-27T14:24:52.032Z,14.10
2019-04-27T14:27:23.882Z,14.90
2019-04-27T14:29:53.024Z,14.90
2019-04-27T14:32:22.288Z,15.10
2019-04-27T14:34:52.628Z,15.00
2019-04-27T14:37:21.854Z,15.60
2019-04-27T14:39:53.285Z,15.40
2019-04-27T14:42:24.228Z,16.00
2019-04-27T14:44:53.430Z,15.60
2019-04-27T14:47:31.112Z,15.20
2019-04-27T14:50:00.759Z,14.80
2019-04-27T14:52:29.921Z,15.30
2019-04-27T14:54:59.342Z,15.30
2019-04-27T14:57:29.201Z,15.50
2019-04-27T15:00:00.792Z,15.10
2019-04-27T15:02:30.043Z,14.90
2019-04-27T15:04:59.548Z,15.40
2019-04-27T15:07:28.767Z,15.60
2019-04-27T15:09:58.040Z,15.60
2019-04-27T15:12:30.473Z,15.80
2019-04-27T15:14:59.456Z,15.90
2019-04-27T15:17:29.610Z,16.10
2019-04-27T15:20:03.421Z,15.70
2019-04-27T15:22:35.108Z,15.60
2019-04-27T15:25:12.481Z,14.80
2019-04-27T15:27:45.670Z,14.80
2019-04-27T15:30:26.896Z,14.70
2019-04-27T15:33:17.600Z,14.50
2019-04-27T15:35:58.078Z,14.00
2019-04-27T15:38:28.806Z,13.80
2019-04-27T15:41:17.451Z,14.00
2019-04-27T15:43:48.743Z,14.10
2019-04-27T15:46:22.394Z,13.70
2019-04-27T15:48:55.836Z,13.70
2019-04-27T15:51:25.232Z,13.90
2019-04-27T15:53:56.240Z,14.10
2019-04-27T15:56:30.524Z,14.40
2019-04-27T15:58:59.965Z,14.40
2019-04-27T16:01:35.635Z,14.20
2019-04-27T16:04:02.457Z,13.90
2019-04-27T16:06:32.235Z,13.70
2019-04-27T16:09:01.447Z,13.60
2019-04-27T16:11:33.671Z,13.50
2019-04-27T16:14:06.300Z,13.40
2019-04-27T16:16:33.757Z,13.20
2019-04-27T16:19:08.837Z,13.10
2019-04-27T16:21:41.517Z,12.70
2019-04-27T16:24:12.575Z,12.60
2019-04-27T16:26:41.926Z,12.30
2019-04-27T16:29:11.213Z,12.10
2019-04-27T16:31:42.197Z,12.00
2019-04-27T16:34:11.344Z,11.80
2019-04-27T16:36:43.703Z,11.80
2019-04-27T16:39:12.060Z,11.90
2019-04-27T16:41:42.983Z,11.90
2019-04-27T16:44:12.465Z,12.10
2019-04-27T16:46:43.942Z,12.00
2019-04-27T16:49:14.800Z,12.00
2019-04-27T16:51:44.720Z,11.90
2019-04-27T16:54:17.553Z,12.00
2019-04-27T16:59:36.539Z,11.90
2019-04-27T17:01:50.296Z,12.00
2019-04-27T17:04:19.988Z,11.90
2019-04-27T17:06:49.663Z,12.00
2019-04-27T17:09:19.149Z,12.10
2019-04-27T17:11:50.158Z,12.10
2019-04-27T17:12:40.185Z,12.00
2019-04-27T17:14:42.859Z,12.10
2019-04-27T17:17:29.021Z,12.00
2019-04-27T17:20:00.915Z,12.00
2019-04-27T17:22:30.633Z,11.90
2019-04-27T17:25:00.059Z,11.90
2019-04-27T17:27:38.255Z,11.80
2019-04-27T17:30:09.181Z,11.80
2019-04-27T17:32:52.120Z,11.70
2019-04-27T17:35:21.248Z,11.70
2019-04-27T17:37:50.430Z,11.60
2019-04-27T17:40:19.798Z,11.60
2019-04-27T17:42:48.957Z,11.50
2019-04-27T17:45:19.385Z,11.60
2019-04-27T17:47:49.402Z,11.50
2019-04-27T17:50:25.135Z,11.50
2019-04-27T17:52:54.850Z,11.50
2019-04-27T17:55:24.226Z,11.40
2019-04-27T17:57:51.542Z,11.40
2019-04-27T18:00:21.234Z,11.40
2019-04-27T18:02:50.542Z,11.30
2019-04-27T18:05:19.668Z,11.30
2019-04-27T18:07:50.916Z,11.30
2019-04-27T18:10:23.906Z,11.30
2019-04-27T18:12:50.936Z,11.30
2019-04-27T18:15:20.362Z,11.40
2019-04-27T18:17:52.278Z,11.40
2019-04-27T18:20:23.991Z,11.30
2019-04-27T18:23:02.044Z,11.00
2019-04-27T18:25:40.374Z,11.10
2019-04-27T18:28:15.194Z,11.10
2019-04-27T18:30:56.166Z,11.00
2019-04-27T18:33:28.395Z,11.00
2019-04-27T18:36:05.002Z,11.00
2019-04-27T18:38:30.772Z,11.10
2019-04-27T18:41:02.975Z,11.00
2019-04-27T18:43:30.770Z,11.00
2019-04-27T18:45:59.859Z,10.90
2019-04-27T18:48:50.288Z,10.90
2019-04-27T18:51:29.231Z,10.90
2019-04-27T18:54:03.622Z,10.90
2019-04-27T18:56:33.480Z,10.90
2019-04-27T18:59:02.863Z,10.90
2019-04-27T19:01:32.333Z,10.90
2019-04-27T19:04:01.416Z,10.80
2019-04-27T19:06:30.528Z,10.70
2019-04-27T19:08:59.994Z,10.60
2019-04-27T19:11:29.197Z,10.50
2019-04-27T19:13:59.081Z,10.50
2019-04-27T19:16:29.672Z,10.50
2019-04-27T19:18:59.993Z,10.60
2019-04-27T19:21:29.547Z,10.60
2019-04-27T19:23:58.818Z,10.60
2019-04-27T19:26:48.480Z,10.60
2019-04-27T19:29:21.430Z,10.70
2019-04-27T19:31:58.620Z,10.70
2019-04-27T19:34:28.666Z,10.70
2019-04-27T19:36:59.205Z,10.70
2019-04-27T19:39:28.797Z,10.60
2019-04-27T19:42:02.995Z,10.40
2019-04-27T19:44:30.574Z,10.30
2019-04-27T19:47:01.115Z,10.20
2019-04-27T19:49:31.780Z,10.00
2019-04-27T19:52:01.172Z,10.00
2019-04-27T19:54:30.421Z,9.90
2019-04-27T19:56:59.672Z,9.90
2019-04-27T19:59:38.157Z,9.80
2019-04-27T20:02:11.961Z,9.70
2019-04-27T20:04:47.756Z,9.70
2019-04-27T20:07:18.200Z,9.70
2019-04-27T20:10:01.415Z,9.70
2019-04-27T20:12:31.378Z,9.70
2019-04-27T20:15:02.372Z,9.80
2019-04-27T20:17:32.290Z,9.80
2019-04-27T20:20:02.107Z,9.90
2019-04-27T20:22:33.055Z,9.90
2019-04-27T20:25:02.241Z,10.00
2019-04-27T20:27:45.007Z,10.00
2019-04-27T20:30:03.201Z,9.90
2019-04-27T20:32:34.740Z,9.90
2019-04-27T20:35:04.048Z,9.90
2019-04-27T20:37:34.321Z,9.90
2019-04-27T20:40:06.730Z,9.90
2019-04-27T20:42:35.881Z,10.00
2019-04-27T20:45:05.048Z,10.00
2019-04-27T20:47:34.281Z,10.00
2019-04-27T20:50:03.486Z,10.10
2019-04-27T20:52:51.811Z,10.10
2019-04-27T20:55:21.437Z,10.10
2019-04-27T20:58:01.876Z,10.10
2019-04-27T21:00:24.831Z,10.10
2019-04-27T21:03:12.744Z,10.00
2019-04-27T21:05:51.041Z,10.00
2019-04-27T21:08:20.885Z,10.10
2019-04-27T21:10:54.205Z,10.10
2019-04-27T21:13:23.337Z,10.20
2019-04-27T21:15:52.507Z,9.70
2019-04-27T21:18:21.784Z,9.20
2019-04-27T21:20:51.379Z,9.10
2019-04-27T21:23:21.051Z,9.20
2019-04-27T21:25:51.778Z,9.20
2019-04-27T21:28:22.104Z,9.10
2019-04-27T21:30:51.742Z,9.10
2019-04-27T21:33:21.556Z,9.10
2019-04-27T21:35:51.222Z,9.10
2019-04-27T21:38:20.616Z,9.10
2019-04-27T21:40:50.426Z,9.10
2019-04-27T21:43:22.562Z,9.10
2019-04-27T21:45:51.800Z,9.20
2019-04-27T21:48:21.297Z,9.10
2019-04-27T21:50:51.650Z,9.00
2019-04-27T21:53:33.740Z,8.80
2019-04-27T21:56:05.241Z,8.80
2019-04-27T21:58:34.641Z,8.70
2019-04-27T22:01:14.914Z,8.70
2019-04-27T22:03:44.005Z,8.70
2019-04-27T22:06:13.180Z,8.60
2019-04-27T22:08:42.304Z,8.60
2019-04-27T22:11:12.581Z,8.60
2019-04-27T22:13:41.699Z,8.60
2019-04-27T22:16:12.732Z,8.70
2019-04-27T22:18:41.815Z,8.60
2019-04-27T22:21:11.598Z,8.50
2019-04-27T22:24:00.973Z,8.50
2019-04-27T22:26:31.445Z,8.60
2019-04-27T22:29:01.593Z,8.60
2019-04-27T22:31:31.349Z,8.60
2019-04-27T22:34:01.924Z,8.60
2019-04-27T22:36:31.025Z,8.70
2019-04-27T22:39:04.709Z,8.60
2019-04-27T22:41:58.676Z,8.50
2019-04-27T22:44:38.251Z,8.50
2019-04-27T22:47:07.338Z,8.50
2019-04-27T22:49:36.474Z,8.50
2019-04-27T22:52:05.624Z,8.50
2019-04-27T22:54:34.718Z,8.50
2019-04-27T22:57:11.344Z,8.50
2019-04-27T22:59:57.171Z,8.50
2019-04-27T23:02:58.062Z,8.40
2019-04-27T23:05:27.524Z,8.40
2019-04-27T23:07:58.098Z,8.40
2019-04-27T23:10:29.129Z,8.40
2019-04-27T23:12:58.546Z,8.40
2019-04-27T23:15:33.112Z,8.30
2019-04-27T23:18:02.509Z,8.30
2019-04-27T23:20:32.154Z,8.40
2019-04-27T23:23:02.878Z,8.40
2019-04-27T23:25:38.690Z,8.30
2019-04-27T23:28:07.592Z,8.10
2019-04-27T23:30:56.155Z,7.90
2019-04-27T23:33:25.541Z,7.80
2019-04-27T23:35:54.659Z,7.80
2019-04-27T23:38:23.802Z,7.90
2019-04-27T23:40:52.905Z,7.90
2019-04-27T23:43:22.007Z,7.90
2019-04-27T23:45:51.625Z,7.80
2019-04-27T23:48:22.975Z,7.80
2019-04-27T23:50:54.937Z,7.80
2019-04-27T23:53:26.798Z,7.80
2019-04-27T23:55:55.903Z,7.70
2019-04-27T23:58:24.998Z,7.80
